Time;durP1;ratioP1;P1;durP2;ratioP2;P2;SDS_P1;SDS_P2;PMS_P1;PMS_P2;Temp;Humidity;BMP_temperature;BMP_pressure;BME280_temperature;BME280_humidity;BME280_pressure;Samples;Min_cycle;Max_cycle;Signal;HPM_P1;HPM_P2
2023/09/11 00:00:59;;;;;;;;;;;21.40;73.20;;;;;;4958626;28;19914;-78
2023/09/11 00:03:24;;;;;;;;;;;21.40;73.20;;;;;;4974706;28;19964;-79
2023/09/11 00:05:50;;;;;;;;;;;21.40;73.30;;;;;;4991814;28;19953;-78
2023/09/11 00:08:15;;;;;;;;;;;21.40;73.30;;;;;;4991672;28;20012;-79
2023/09/11 00:10:41;;;;;;;;;;;21.40;73.30;;;;;;4991834;28;19910;-78
2023/09/11 00:13:07;;;;;;;;;;;21.40;73.30;;;;;;4958122;28;20004;-78
2023/09/11 00:15:34;;;;;;;;;;;21.40;73.30;;;;;;4974263;28;19917;-78
2023/09/11 00:17:59;;;;;;;;;;;21.30;73.20;;;;;;4991857;28;19927;-78
2023/09/11 00:20:25;;;;;;;;;;;21.30;73.20;;;;;;4974063;28;19918;-78
2023/09/11 00:22:51;;;;;;;;;;;21.30;73.20;;;;;;4991348;28;19914;-78
2023/09/11 00:25:16;;;;;;;;;;;21.20;73.20;;;;;;4957695;28;19914;-78
2023/09/11 00:27:42;;;;;;;;;;;21.20;73.20;;;;;;4973262;28;19977;-79
2023/09/11 00:30:08;;;;;;;;;;;21.20;73.20;;;;;;4991384;28;19917;-79
2023/09/11 00:32:33;;;;;;;;;;;21.20;73.20;;;;;;4974058;28;20000;-79
2023/09/11 00:34:59;;;;;;;;;;;21.10;73.70;;;;;;4957582;28;19934;-79
2023/09/11 00:37:24;;;;;;;;;;;21.10;73.20;;;;;;4957593;28;20004;-79
2023/09/11 00:39:50;;;;;;;;;;;21.10;73.30;;;;;;4957651;28;19914;-79
2023/09/11 00:42:15;;;;;;;;;;;21.10;73.20;;;;;;4957470;28;20008;-79
2023/09/11 00:44:41;;;;;;;;;;;21.00;73.20;;;;;;4957338;28;19914;-79
2023/09/11 00:47:07;;;;;;;;;;;21.00;73.20;;;;;;4973644;28;20004;-78
2023/09/11 00:49:33;;;;;;;;;;;21.00;73.30;;;;;;4957321;28;19926;-79
2023/09/11 00:51:58;;;;;;;;;;;20.90;73.30;;;;;;4957209;28;19921;-79
2023/09/11 00:54:25;;;;;;;;;;;21.00;73.30;;;;;;4973362;28;19919;-79
2023/09/11 00:56:51;;;;;;;;;;;21.00;73.30;;;;;;4990685;28;20001;-78
2023/09/11 00:59:17;;;;;;;;;;;21.00;73.20;;;;;;4990641;28;20005;-78
2023/09/11 01:01:44;;;;;;;;;;;21.00;73.20;;;;;;4973406;28;19918;-78
2023/09/11 01:04:10;;;;;;;;;;;20.90;73.10;;;;;;4973046;28;19923;-79
2023/09/11 01:06:35;;;;;;;;;;;20.90;73.10;;;;;;4990735;28;19914;-78
2023/09/11 01:09:02;;;;;;;;;;;20.80;73.20;;;;;;4990901;28;19918;-79
2023/09/11 01:11:27;;;;;;;;;;;20.70;73.20;;;;;;4973206;28;19953;-78
2023/09/11 01:13:53;;;;;;;;;;;20.70;73.20;;;;;;4956918;28;19952;-78
2023/09/11 01:16:32;;;;;;;;;;;20.70;73.30;;;;;;4989026;28;19964;-78
2023/09/11 01:19:01;;;;;;;;;;;20.70;73.30;;;;;;4990326;28;19914;-78
2023/09/11 01:21:59;;;;;;;;;;;20.70;73.30;;;;;;4972911;28;19910;-78
2023/09/11 01:24:30;;;;;;;;;;;20.70;73.30;;;;;;4967743;28;20110;-78
2023/09/11 01:26:59;;;;;;;;;;;20.70;73.20;;;;;;4972743;28;20370;-79
2023/09/11 01:29:25;;;;;;;;;;;20.70;73.20;;;;;;4990246;28;19965;-79
2023/09/11 01:31:51;;;;;;;;;;;20.70;73.20;;;;;;4990228;28;19910;-79
2023/09/11 01:34:17;;;;;;;;;;;20.70;73.20;;;;;;4972532;28;19950;-79
2023/09/11 01:36:42;;;;;;;;;;;20.70;73.20;;;;;;4989887;28;19968;-79
2023/09/11 01:39:08;;;;;;;;;;;20.70;73.20;;;;;;4988944;28;19910;-79
2023/09/11 01:41:34;;;;;;;;;;;20.70;73.20;;;;;;4972879;28;19914;-79
2023/09/11 01:44:04;;;;;;;;;;;20.70;73.20;;;;;;4972668;28;19913;-78
2023/09/11 01:46:31;;;;;;;;;;;20.70;73.30;;;;;;4990370;28;20304;-78
2023/09/11 01:48:58;;;;;;;;;;;20.70;73.20;;;;;;4972073;28;20271;-79
2023/09/11 01:51:24;;;;;;;;;;;20.60;73.20;;;;;;4972476;28;19922;-79
2023/09/11 01:53:50;;;;;;;;;;;20.60;73.20;;;;;;4989911;28;20351;-79
2023/09/11 01:56:15;;;;;;;;;;;20.60;73.30;;;;;;4972084;28;19964;-79
2023/09/11 01:58:42;;;;;;;;;;;20.60;73.20;;;;;;4972258;28;19914;-79
2023/09/11 02:01:08;;;;;;;;;;;20.60;73.30;;;;;;4972025;28;19917;-79
2023/09/11 02:03:33;;;;;;;;;;;20.60;73.80;;;;;;4956116;28;20358;-80
2023/09/11 02:05:59;;;;;;;;;;;20.50;73.30;;;;;;4989488;28;19956;-79
2023/09/11 02:08:25;;;;;;;;;;;20.50;73.30;;;;;;4972114;28;19918;-79
2023/09/11 02:10:53;;;;;;;;;;;20.50;73.30;;;;;;4989438;28;19914;-79
2023/09/11 02:13:19;;;;;;;;;;;20.50;73.20;;;;;;4989238;28;19925;-80
2023/09/11 02:15:45;;;;;;;;;;;20.50;73.20;;;;;;4971658;28;19918;-79
2023/09/11 02:18:10;;;;;;;;;;;20.50;73.20;;;;;;4989225;28;20278;-78
2023/09/11 02:20:36;;;;;;;;;;;20.50;73.20;;;;;;4955679;28;20358;-78
2023/09/11 02:23:02;;;;;;;;;;;20.50;73.20;;;;;;4989218;28;20079;-78
2023/09/11 02:25:28;;;;;;;;;;;20.50;73.20;;;;;;4955470;28;19918;-78
2023/09/11 02:27:53;;;;;;;;;;;20.50;73.20;;;;;;4971757;28;19937;-78
2023/09/11 02:30:19;;;;;;;;;;;20.40;73.10;;;;;;4971700;28;19922;-78
2023/09/11 02:32:44;;;;;;;;;;;20.40;73.20;;;;;;4989263;28;20289;-79
2023/09/11 02:35:10;;;;;;;;;;;20.40;73.10;;;;;;4971550;28;19922;-78
2023/09/11 02:37:36;;;;;;;;;;;20.40;73.20;;;;;;4971573;28;19916;-79
2023/09/11 02:40:02;;;;;;;;;;;20.30;73.20;;;;;;4955472;28;20358;-79
2023/09/11 02:42:28;;;;;;;;;;;20.30;73.20;;;;;;4971638;28;20361;-78
2023/09/11 02:44:53;;;;;;;;;;;20.30;73.20;;;;;;4971318;28;19914;-78
2023/09/11 02:47:19;;;;;;;;;;;20.30;73.20;;;;;;4955164;28;19930;-78
2023/09/11 02:49:44;;;;;;;;;;;20.20;73.20;;;;;;4988719;28;19929;-79
2023/09/11 02:52:10;;;;;;;;;;;20.20;73.20;;;;;;4971904;28;19914;-79
2023/09/11 02:54:35;;;;;;;;;;;20.10;73.20;;;;;;4988793;28;20322;-78
2023/09/11 02:57:01;;;;;;;;;;;20.10;73.20;;;;;;4971628;28;19913;-78
2023/09/11 02:59:27;;;;;;;;;;;20.10;73.20;;;;;;4971353;28;19918;-78
2023/09/11 03:01:52;;;;;;;;;;;20.00;73.10;;;;;;4955290;28;19952;-78
2023/09/11 03:04:18;;;;;;;;;;;20.00;73.20;;;;;;4971203;28;19993;-78
2023/09/11 03:06:43;;;;;;;;;;;20.00;73.30;;;;;;4971375;28;19917;-78
2023/09/11 03:09:09;;;;;;;;;;;20.00;73.30;;;;;;4988672;28;20433;-78
2023/09/11 03:11:34;;;;;;;;;;;19.90;73.20;;;;;;4987497;28;19922;-78
2023/09/11 03:14:00;;;;;;;;;;;19.90;73.30;;;;;;4988641;28;19922;-78
2023/09/11 03:16:26;;;;;;;;;;;19.90;73.30;;;;;;4988836;28;19953;-78
2023/09/11 03:18:52;;;;;;;;;;;19.90;73.30;;;;;;4988565;28;19971;-78
2023/09/11 03:21:17;;;;;;;;;;;19.90;73.30;;;;;;4971065;28;19960;-78
2023/09/11 03:23:43;;;;;;;;;;;19.90;73.30;;;;;;4955020;28;19925;-78
2023/09/11 03:26:13;;;;;;;;;;;19.90;73.30;;;;;;4988481;28;19928;-78
2023/09/11 03:28:38;;;;;;;;;;;19.90;73.30;;;;;;4988815;28;19910;-78
2023/09/11 03:31:04;;;;;;;;;;;19.80;73.30;;;;;;4954834;28;20355;-78
2023/09/11 03:33:29;;;;;;;;;;;19.80;73.30;;;;;;4988705;28;19910;-78
2023/09/11 03:35:55;;;;;;;;;;;19.80;73.30;;;;;;4970812;28;19920;-78
2023/09/11 03:38:20;;;;;;;;;;;19.80;73.30;;;;;;4970941;28;19917;-79
2023/09/11 03:40:46;;;;;;;;;;;19.70;73.30;;;;;;4970729;28;20337;-78
2023/09/11 03:43:12;;;;;;;;;;;19.70;73.20;;;;;;4970760;28;19914;-78
2023/09/11 03:45:38;;;;;;;;;;;19.70;73.20;;;;;;4986862;28;20005;-79
2023/09/11 03:48:03;;;;;;;;;;;19.80;73.30;;;;;;4988021;28;19964;-78
2023/09/11 03:50:29;;;;;;;;;;;19.80;73.30;;;;;;4988315;28;19929;-79
2023/09/11 03:52:55;;;;;;;;;;;19.90;73.30;;;;;;4988288;28;19964;-79
2023/09/11 03:55:20;;;;;;;;;;;19.90;73.20;;;;;;4954556;28;19917;-78
2023/09/11 03:57:46;;;;;;;;;;;19.90;73.10;;;;;;4970678;28;19914;-78
2023/09/11 04:00:12;;;;;;;;;;;19.90;73.10;;;;;;4970852;28;20394;-77
2023/09/11 04:02:38;;;;;;;;;;;19.80;73.10;;;;;;4973543;28;19922;-77
2023/09/11 04:05:03;;;;;;;;;;;19.80;73.10;;;;;;4958022;28;19938;-77
2023/09/11 04:07:29;;;;;;;;;;;19.70;73.10;;;;;;4991697;28;19913;-77
2023/09/11 04:09:54;;;;;;;;;;;19.70;73.10;;;;;;4958120;28;19965;-78
2023/09/11 04:12:20;;;;;;;;;;;19.70;73.10;;;;;;4958163;28;19914;-78
2023/09/11 04:14:46;;;;;;;;;;;19.70;73.20;;;;;;4974000;28;19914;-78
2023/09/11 04:17:11;;;;;;;;;;;19.70;73.20;;;;;;4990342;28;20373;-78
2023/09/11 04:19:40;;;;;;;;;;;19.70;73.20;;;;;;4974225;28;19927;-78
2023/09/11 04:22:06;;;;;;;;;;;19.60;73.10;;;;;;4974050;28;20013;-77
2023/09/11 04:24:32;;;;;;;;;;;19.60;73.20;;;;;;4974087;28;19921;-79
2023/09/11 04:26:58;;;;;;;;;;;19.60;73.20;;;;;;4991689;28;19964;-79
2023/09/11 04:29:24;;;;;;;;;;;19.60;73.30;;;;;;4973853;28;19922;-79
2023/09/11 04:31:49;;;;;;;;;;;19.60;73.20;;;;;;4991478;28;19914;-79
2023/09/11 04:34:16;;;;;;;;;;;19.60;73.20;;;;;;4991251;28;20349;-79
2023/09/11 04:36:41;;;;;;;;;;;19.60;73.20;;;;;;4989857;28;19964;-79
2023/09/11 04:39:07;;;;;;;;;;;19.60;73.20;;;;;;4991645;28;19922;-79
2023/09/11 04:41:32;;;;;;;;;;;19.60;73.20;;;;;;4973583;28;19914;-79
2023/09/11 04:43:58;;;;;;;;;;;19.60;73.20;;;;;;4957330;28;20366;-79
2023/09/11 04:46:23;;;;;;;;;;;19.60;73.10;;;;;;4989765;28;19922;-79
2023/09/11 04:48:49;;;;;;;;;;;19.60;73.10;;;;;;4957199;28;19937;-80
2023/09/11 04:51:15;;;;;;;;;;;19.60;73.10;;;;;;4991101;28;19953;-80
2023/09/11 04:53:40;;;;;;;;;;;19.60;73.10;;;;;;4957315;28;19921;-80
2023/09/11 04:56:06;;;;;;;;;;;19.60;73.10;;;;;;4990829;28;19921;-79
2023/09/11 04:58:31;;;;;;;;;;;19.60;73.20;;;;;;4973177;28;20370;-79
2023/09/11 05:00:57;;;;;;;;;;;19.60;73.20;;;;;;4973495;28;19941;-79
2023/09/11 05:03:22;;;;;;;;;;;19.60;73.20;;;;;;4957256;28;20293;-79
2023/09/11 05:05:49;;;;;;;;;;;19.60;73.10;;;;;;4956892;28;19914;-79
2023/09/11 05:08:14;;;;;;;;;;;19.60;73.20;;;;;;4957576;28;19923;-79
2023/09/11 05:10:43;;;;;;;;;;;19.60;73.20;;;;;;4973146;28;19918;-80
2023/09/11 05:13:12;;;;;;;;;;;19.60;73.20;;;;;;4956843;28;19918;-79
2023/09/11 05:15:38;;;;;;;;;;;19.60;73.10;;;;;;4972959;28;20380;-79
2023/09/11 05:18:03;;;;;;;;;;;19.60;73.20;;;;;;4972989;28;20004;-79
2023/09/11 05:20:30;;;;;;;;;;;19.50;73.10;;;;;;4972985;28;19926;-79
2023/09/11 05:22:56;;;;;;;;;;;19.60;73.20;;;;;;4990289;28;19917;-79
2023/09/11 05:25:22;;;;;;;;;;;19.50;73.10;;;;;;4990327;28;19914;-79
2023/09/11 05:27:48;;;;;;;;;;;19.50;73.20;;;;;;4990144;28;20328;-79
2023/09/11 05:30:13;;;;;;;;;;;19.50;73.10;;;;;;4956505;28;19982;-79
2023/09/11 05:32:39;;;;;;;;;;;19.50;73.10;;;;;;4972546;28;19914;-80
2023/09/11 05:35:05;;;;;;;;;;;19.50;73.10;;;;;;4972436;28;19913;-79
2023/09/11 05:37:31;;;;;;;;;;;19.50;73.20;;;;;;4972450;28;20004;-79
2023/09/11 05:39:56;;;;;;;;;;;19.50;73.20;;;;;;4988754;28;20482;-79
2023/09/11 05:42:22;;;;;;;;;;;19.50;73.20;;;;;;4956526;28;19913;-79
2023/09/11 05:44:48;;;;;;;;;;;19.50;73.10;;;;;;4988560;28;20003;-79
2023/09/11 05:47:14;;;;;;;;;;;19.50;73.10;;;;;;4956284;28;19914;-79
2023/09/11 05:49:40;;;;;;;;;;;19.50;73.10;;;;;;4972071;28;19929;-80
2023/09/11 05:52:06;;;;;;;;;;;19.50;73.10;;;;;;4972526;28;19920;-80
2023/09/11 05:54:33;;;;;;;;;;;19.50;73.10;;;;;;4989595;28;19917;-80
2023/09/11 05:56:59;;;;;;;;;;;19.50;73.20;;;;;;4956034;28;20303;-79
2023/09/11 05:59:25;;;;;;;;;;;19.50;73.20;;;;;;4971793;28;20321;-79
2023/09/11 06:01:51;;;;;;;;;;;19.50;73.20;;;;;;4989497;28;19921;-79
2023/09/11 06:04:16;;;;;;;;;;;19.50;73.30;;;;;;4971878;28;20067;-79
2023/09/11 06:06:42;;;;;;;;;;;19.50;73.20;;;;;;4971467;28;19911;-79
2023/09/11 06:09:08;;;;;;;;;;;19.50;73.20;;;;;;4989071;28;19918;-79
2023/09/11 06:11:34;;;;;;;;;;;19.50;73.40;;;;;;4971845;28;20569;-80
2023/09/11 06:14:00;;;;;;;;;;;19.50;73.40;;;;;;4971636;28;20452;-79
2023/09/11 06:16:25;;;;;;;;;;;19.50;73.40;;;;;;4971277;28;19918;-79
2023/09/11 06:18:51;;;;;;;;;;;19.50;73.30;;;;;;4989174;28;20290;-79
2023/09/11 06:21:17;;;;;;;;;;;19.60;73.30;;;;;;4971902;28;20016;-79
2023/09/11 06:23:43;;;;;;;;;;;19.60;73.20;;;;;;4971300;28;19914;-79
2023/09/11 06:26:09;;;;;;;;;;;19.60;73.20;;;;;;4971321;28;19914;-79
2023/09/11 06:28:34;;;;;;;;;;;19.60;73.30;;;;;;4971064;28;19992;-79
2023/09/11 06:31:00;;;;;;;;;;;19.60;73.30;;;;;;4971067;28;20024;-79
2023/09/11 06:33:28;;;;;;;;;;;19.60;73.20;;;;;;4955138;28;19921;-79
2023/09/11 06:35:54;;;;;;;;;;;19.60;73.20;;;;;;4971127;28;20096;-79
2023/09/11 06:38:20;;;;;;;;;;;19.60;73.20;;;;;;4971383;28;19964;-79
2023/09/11 06:40:45;;;;;;;;;;;19.60;73.20;;;;;;4988654;28;19914;-80
2023/09/11 06:43:11;;;;;;;;;;;19.70;73.20;;;;;;4954998;28;19956;-79
2023/09/11 06:45:38;;;;;;;;;;;19.70;73.20;;;;;;4987275;28;19909;-80
2023/09/11 06:48:04;;;;;;;;;;;19.60;73.20;;;;;;4955071;28;19917;-80
2023/09/11 06:50:30;;;;;;;;;;;19.50;73.30;;;;;;4954822;28;19921;-79
2023/09/11 06:52:56;;;;;;;;;;;19.50;73.30;;;;;;4971074;28;19914;-80
2023/09/11 06:55:21;;;;;;;;;;;19.50;73.30;;;;;;4971114;28;19924;-78
2023/09/11 06:57:58;;;;;;;;;;;19.50;73.30;;;;;;4954809;28;20088;-79
2023/09/11 07:00:23;;;;;;;;;;;19.50;73.30;;;;;;4970375;28;20396;-79
2023/09/11 07:02:49;;;;;;;;;;;19.50;73.20;;;;;;4987935;28;19939;-78
2023/09/11 07:05:18;;;;;;;;;;;19.50;73.20;;;;;;4970254;28;20376;-79
2023/09/11 07:07:43;;;;;;;;;;;19.50;73.20;;;;;;4988306;28;19914;-79
2023/09/11 07:10:15;;;;;;;;;;;19.50;73.20;;;;;;4986635;28;19921;-79
2023/09/11 07:12:49;;;;;;;;;;;19.60;73.20;;;;;;4970573;28;20010;-79
2023/09/11 07:15:17;;;;;;;;;;;19.60;73.30;;;;;;4970673;28;19965;-67
2023/09/11 07:17:44;;;;;;;;;;;19.70;73.30;;;;;;4987614;28;19925;-79
2023/09/11 07:20:10;;;;;;;;;;;19.70;73.20;;;;;;4987929;28;19949;-79
2023/09/11 07:22:36;;;;;;;;;;;19.70;73.20;;;;;;4970116;28;19956;-81
2023/09/11 07:25:03;;;;;;;;;;;19.80;73.20;;;;;;4970093;28;19970;-79
2023/09/11 07:27:33;;;;;;;;;;;19.80;73.20;;;;;;4986784;28;19917;-77
2023/09/11 07:29:59;;;;;;;;;;;19.90;73.20;;;;;;4986055;28;20197;-79
2023/09/11 07:32:25;;;;;;;;;;;19.90;73.10;;;;;;4953967;28;19918;-80
2023/09/11 07:34:51;;;;;;;;;;;19.90;73.00;;;;;;4953597;28;19913;-79
2023/09/11 07:37:16;;;;;;;;;;;20.00;73.10;;;;;;4956552;28;19924;-78
2023/09/11 07:39:42;;;;;;;;;;;20.00;73.10;;;;;;4957779;28;19925;-81
2023/09/11 07:42:08;;;;;;;;;;;20.00;73.00;;;;;;4973811;28;19960;-79
2023/09/11 07:44:33;;;;;;;;;;;20.00;72.90;;;;;;4973243;28;19981;-80
2023/09/11 07:46:59;;;;;;;;;;;20.00;73.40;;;;;;4973951;28;19914;-77
2023/09/11 07:49:24;;;;;;;;;;;20.00;72.90;;;;;;4973710;28;19926;-79
2023/09/11 07:51:50;;;;;;;;;;;20.00;72.90;;;;;;4957756;28;19914;-79
2023/09/11 07:54:16;;;;;;;;;;;20.00;72.90;;;;;;4973572;28;19944;-78
2023/09/11 07:56:41;;;;;;;;;;;20.00;72.90;;;;;;4973205;28;20008;-78
2023/09/11 07:59:07;;;;;;;;;;;20.00;72.90;;;;;;4973318;28;19956;-79
2023/09/11 08:01:32;;;;;;;;;;;20.00;72.90;;;;;;4957326;28;20368;-79
2023/09/11 08:03:58;;;;;;;;;;;20.00;73.00;;;;;;4957274;28;19925;-79
2023/09/11 08:06:24;;;;;;;;;;;20.00;73.00;;;;;;4973697;28;20607;-80
2023/09/11 08:08:49;;;;;;;;;;;20.00;72.90;;;;;;4957487;28;19925;-79
2023/09/11 08:11:16;;;;;;;;;;;20.00;72.90;;;;;;4973734;28;20008;-79
2023/09/11 08:13:42;;;;;;;;;;;20.00;72.90;;;;;;4973258;28;19926;-79
2023/09/11 08:16:08;;;;;;;;;;;20.00;72.80;;;;;;4990614;28;19924;-79
2023/09/11 08:18:34;;;;;;;;;;;20.00;72.80;;;;;;4972799;28;19914;-79
2023/09/11 08:21:00;;;;;;;;;;;20.00;72.90;;;;;;4956744;28;19925;-79
2023/09/11 08:23:25;;;;;;;;;;;20.00;72.90;;;;;;4973094;28;20016;-79
2023/09/11 08:26:03;;;;;;;;;;;20.00;73.00;;;;;;4990358;28;19910;-79
2023/09/11 08:28:29;;;;;;;;;;;20.00;73.10;;;;;;4973896;28;19928;-79
2023/09/11 08:30:55;;;;;;;;;;;20.00;73.20;;;;;;4973086;28;20008;-80
2023/09/11 08:33:21;;;;;;;;;;;20.00;73.20;;;;;;4973528;28;19926;-81
2023/09/11 08:35:48;;;;;;;;;;;20.10;73.20;;;;;;5010773;28;19932;-77
2023/09/11 08:38:17;;;;;;;;;;;20.10;73.10;;;;;;4989513;28;19959;-79
2023/09/11 08:40:43;;;;;;;;;;;20.20;73.10;;;;;;4988122;28;19913;-80
2023/09/11 08:43:08;;;;;;;;;;;20.20;73.00;;;;;;4993764;28;19924;-78
2023/09/11 08:45:34;;;;;;;;;;;20.20;72.90;;;;;;4993558;28;19924;-79
2023/09/11 08:48:04;;;;;;;;;;;20.30;73.00;;;;;;4991962;28;19939;-79
2023/09/11 08:50:34;;;;;;;;;;;20.30;73.00;;;;;;4987250;28;19921;-80
2023/09/11 08:53:00;;;;;;;;;;;20.40;73.00;;;;;;4991625;28;19921;-80
2023/09/11 08:55:27;;;;;;;;;;;20.50;72.90;;;;;;4992873;28;20004;-80
2023/09/11 08:57:54;;;;;;;;;;;20.50;72.90;;;;;;4992166;28;20004;-80
2023/09/11 09:00:20;;;;;;;;;;;20.60;72.90;;;;;;5009141;28;19909;-79
2023/09/11 09:02:45;;;;;;;;;;;20.60;72.90;;;;;;4975075;28;19927;-80
2023/09/11 09:05:11;;;;;;;;;;;20.60;72.90;;;;;;5009055;28;19916;-79
2023/09/11 09:07:38;;;;;;;;;;;20.60;72.80;;;;;;5008481;28;20378;-79
2023/09/11 09:10:04;;;;;;;;;;;20.60;72.90;;;;;;5009050;28;19921;-81
2023/09/11 09:12:30;;;;;;;;;;;20.60;72.90;;;;;;4975554;28;19918;-80
2023/09/11 09:14:55;;;;;;;;;;;20.60;72.80;;;;;;4977987;28;19914;-77
2023/09/11 09:17:21;;;;;;;;;;;20.60;72.80;;;;;;5010288;28;20009;-80
2023/09/11 09:19:46;;;;;;;;;;;20.50;72.90;;;;;;4993964;28;20008;-80
2023/09/11 09:22:13;;;;;;;;;;;20.50;73.00;;;;;;4993292;28;19917;-80
2023/09/11 09:24:51;;;;;;;;;;;20.40;73.10;;;;;;4977380;28;20349;-79
2023/09/11 09:27:17;;;;;;;;;;;20.30;73.30;;;;;;4990584;28;19913;-80
2023/09/11 09:29:43;;;;;;;;;;;20.30;73.30;;;;;;4986520;28;20009;-79
2023/09/11 09:32:09;;;;;;;;;;;20.20;73.30;;;;;;4972591;28;19961;-79
2023/09/11 09:34:35;;;;;;;;;;;20.20;73.30;;;;;;4973197;28;20466;-82
2023/09/11 09:37:01;;;;;;;;;;;20.30;73.40;;;;;;4973775;28;20061;-82
2023/09/11 09:39:28;;;;;;;;;;;20.40;73.40;;;;;;4976385;28;19925;-79
2023/09/11 09:41:55;;;;;;;;;;;20.40;73.50;;;;;;4973549;28;19914;-78
2023/09/11 09:44:36;;;;;;;;;;;20.50;73.50;;;;;;4973422;28;19925;-81
2023/09/11 09:47:28;;;;;;;;;;;20.60;73.50;;;;;;4972856;28;20530;-80
2023/09/11 09:49:55;;;;;;;;;;;20.70;73.40;;;;;;4997390;28;19922;-81
2023/09/11 09:52:22;;;;;;;;;;;20.90;73.40;;;;;;5023617;28;20365;-82
2023/09/11 09:54:49;;;;;;;;;;;20.90;73.40;;;;;;5015308;28;19997;-76
2023/09/11 09:57:18;;;;;;;;;;;21.00;73.40;;;;;;5002225;28;19979;-78
2023/09/11 09:59:49;;;;;;;;;;;21.10;73.20;;;;;;4997246;28;20000;-82
2023/09/11 10:02:21;;;;;;;;;;;21.00;73.20;;;;;;5002855;28;19916;-79
2023/09/11 10:04:50;;;;;;;;;;;21.00;73.30;;;;;;5030375;28;19909;-80
2023/09/11 10:07:16;;;;;;;;;;;21.00;73.30;;;;;;5029672;28;20218;-78
2023/09/11 10:09:41;;;;;;;;;;;21.00;73.30;;;;;;5009827;28;19910;-80
2023/09/11 10:12:09;;;;;;;;;;;21.00;73.50;;;;;;5010557;28;20587;-73
2023/09/11 10:14:35;;;;;;;;;;;21.00;73.50;;;;;;4992726;28;19959;-78
2023/09/11 10:17:00;;;;;;;;;;;21.00;73.60;;;;;;5010442;28;20000;-80
2023/09/11 10:19:30;;;;;;;;;;;21.10;73.60;;;;;;4992525;28;19913;-76
2023/09/11 10:21:55;;;;;;;;;;;21.10;73.50;;;;;;5010041;28;19921;-77
2023/09/11 10:24:21;;;;;;;;;;;21.20;73.40;;;;;;4992019;28;20005;-76
2023/09/11 10:26:52;;;;;;;;;;;21.20;73.30;;;;;;4991890;28;19914;-74
2023/09/11 10:29:27;;;;;;;;;;;21.20;73.20;;;;;;5009482;28;20528;-78
2023/09/11 10:31:56;;;;;;;;;;;21.20;73.10;;;;;;5008574;28;19920;-76
2023/09/11 10:34:23;;;;;;;;;;;21.10;73.20;;;;;;4991300;28;19921;-76
2023/09/11 10:36:53;;;;;;;;;;;21.20;73.30;;;;;;5009179;28;19918;-77
2023/09/11 10:39:19;;;;;;;;;;;21.20;73.30;;;;;;5008931;28;20242;-76
2023/09/11 10:41:44;;;;;;;;;;;21.30;73.30;;;;;;4975510;28;19913;-77
2023/09/11 10:44:10;;;;;;;;;;;21.30;73.40;;;;;;4991241;28;20278;-76
2023/09/11 10:46:39;;;;;;;;;;;21.40;73.30;;;;;;5009204;28;20230;-75
2023/09/11 10:49:15;;;;;;;;;;;21.50;73.20;;;;;;4976136;28;19968;-83
2023/09/11 10:51:41;;;;;;;;;;;21.50;73.10;;;;;;4975710;28;20265;-78
2023/09/11 10:54:07;;;;;;;;;;;21.40;72.90;;;;;;4975407;28;19914;-77
2023/09/11 10:56:36;;;;;;;;;;;21.40;72.90;;;;;;4991348;28;19979;-76
2023/09/11 10:59:02;;;;;;;;;;;21.30;72.80;;;;;;4991859;28;19913;-76
2023/09/11 11:01:27;;;;;;;;;;;21.20;72.80;;;;;;4975979;28;19937;-77
2023/09/11 11:03:53;;;;;;;;;;;21.10;72.90;;;;;;5009269;28;19917;-75
2023/09/11 11:06:21;;;;;;;;;;;21.10;72.90;;;;;;4991468;28;19917;-75
2023/09/11 11:08:48;;;;;;;;;;;21.00;73.00;;;;;;5009168;28;19910;-79
2023/09/11 11:11:20;;;;;;;;;;;21.00;73.00;;;;;;4993858;28;19944;-76
2023/09/11 11:14:04;;;;;;;;;;;21.00;73.10;;;;;;5014662;28;19971;-80
2023/09/11 11:19:05;;;;;;;;;;;21.20;73.30;;;;;;5523550;22;20922;-79
2023/09/11 11:21:40;;;;;;;;;;;21.40;73.20;;;;;;5054636;28;19908;-81
2023/09/11 11:24:08;;;;;;;;;;;21.50;73.10;;;;;;5069696;28;19916;-80
2023/09/11 11:26:40;;;;;;;;;;;21.60;73.00;;;;;;5089097;28;20369;-80
2023/09/11 11:29:05;;;;;;;;;;;21.70;72.90;;;;;;5041708;28;19952;-81
2023/09/11 11:31:31;;;;;;;;;;;21.70;72.90;;;;;;5026119;28;19945;-81
2023/09/11 11:33:57;;;;;;;;;;;21.70;72.80;;;;;;5028411;28;19933;-80
2023/09/11 11:36:24;;;;;;;;;;;21.60;72.70;;;;;;5023787;28;19920;-81
2023/09/11 11:38:52;;;;;;;;;;;21.50;72.70;;;;;;5043471;28;19909;-80
2023/09/11 11:41:18;;;;;;;;;;;21.40;72.90;;;;;;5044215;28;19913;-80
2023/09/11 11:43:44;;;;;;;;;;;21.30;73.00;;;;;;5069456;28;19908;-80
2023/09/11 11:46:10;;;;;;;;;;;21.30;73.10;;;;;;5052170;28;19931;-79
2023/09/11 11:48:37;;;;;;;;;;;21.30;73.00;;;;;;5034425;28;19970;-80
2023/09/11 11:51:03;;;;;;;;;;;21.20;73.00;;;;;;5034626;28;19913;-79
2023/09/11 11:53:30;;;;;;;;;;;21.10;73.00;;;;;;5017830;28;19992;-80
2023/09/11 11:55:56;;;;;;;;;;;21.10;73.10;;;;;;5034065;28;20364;-80
2023/09/11 11:58:22;;;;;;;;;;;21.10;73.10;;;;;;5029842;28;20424;-80
2023/09/11 12:01:00;;;;;;;;;;;21.00;73.00;;;;;;5011893;28;20007;-80
2023/09/11 12:03:44;;;;;;;;;;;20.90;72.90;;;;;;5012772;28;20004;-79
2023/09/11 12:06:10;;;;;;;;;;;20.90;73.10;;;;;;5052256;28;20255;-78
2023/09/11 12:08:36;;;;;;;;;;;20.90;73.20;;;;;;5033896;28;19923;-79
2023/09/11 12:11:01;;;;;;;;;;;20.90;73.10;;;;;;5044322;28;19912;-79
2023/09/11 12:13:27;;;;;;;;;;;20.90;73.10;;;;;;5034484;28;19909;-78
2023/09/11 12:15:57;;;;;;;;;;;20.90;73.30;;;;;;5033753;28;19912;-79
2023/09/11 12:18:28;;;;;;;;;;;21.10;73.40;;;;;;5050724;28;20001;-78
2023/09/11 12:20:58;;;;;;;;;;;21.20;73.30;;;;;;5029519;28;20066;-79
2023/09/11 12:23:24;;;;;;;;;;;21.20;73.20;;;;;;5052770;28;20359;-82
2023/09/11 12:25:50;;;;;;;;;;;21.30;73.30;;;;;;5053539;28;19919;-77
2023/09/11 12:28:16;;;;;;;;;;;21.30;73.10;;;;;;5053322;28;19912;-80
2023/09/11 12:30:42;;;;;;;;;;;21.30;73.10;;;;;;5053456;28;19913;-77
2023/09/11 12:33:08;;;;;;;;;;;21.20;73.00;;;;;;5037243;28;19913;-80
2023/09/11 12:35:34;;;;;;;;;;;21.10;72.90;;;;;;5053666;28;19935;-81
2023/09/11 12:38:00;;;;;;;;;;;21.00;73.00;;;;;;5053628;28;19919;-82
2023/09/11 12:40:26;;;;;;;;;;;21.00;73.10;;;;;;5036844;28;19916;-81
2023/09/11 12:42:51;;;;;;;;;;;21.00;73.30;;;;;;5046965;28;19931;-79
2023/09/11 12:45:17;;;;;;;;;;;21.00;73.20;;;;;;5031743;28;19962;-78
2023/09/11 12:47:43;;;;;;;;;;;20.90;73.10;;;;;;5013878;28;19920;-81
2023/09/11 12:50:09;;;;;;;;;;;21.00;73.10;;;;;;5013067;28;19914;-80
2023/09/11 12:52:34;;;;;;;;;;;21.10;73.20;;;;;;5013296;28;19910;-80
2023/09/11 12:55:00;;;;;;;;;;;21.20;73.10;;;;;;5013250;28;20321;-80
2023/09/11 12:57:26;;;;;;;;;;;21.10;72.90;;;;;;5013222;28;19921;-80
2023/09/11 12:59:51;;;;;;;;;;;21.20;72.90;;;;;;5013781;28;20525;-79
2023/09/11 13:02:17;;;;;;;;;;;21.10;72.90;;;;;;5030836;28;20000;-77
2023/09/11 13:04:43;;;;;;;;;;;21.10;73.00;;;;;;5031282;28;19945;-77
2023/09/11 13:07:08;;;;;;;;;;;21.20;73.20;;;;;;5014453;28;19913;-80
2023/09/11 13:09:37;;;;;;;;;;;21.20;73.10;;;;;;5013408;28;19909;-79
2023/09/11 13:12:03;;;;;;;;;;;21.20;73.00;;;;;;4997992;28;19921;-80
2023/09/11 13:14:29;;;;;;;;;;;21.10;72.90;;;;;;5011392;28;19913;-67
2023/09/11 13:16:54;;;;;;;;;;;21.10;73.00;;;;;;5029720;28;20360;-80
2023/09/11 13:19:20;;;;;;;;;;;21.10;73.10;;;;;;5012995;28;19921;-82
2023/09/11 13:21:45;;;;;;;;;;;21.20;73.20;;;;;;5013058;28;20360;-79
2023/09/11 13:24:11;;;;;;;;;;;21.30;73.20;;;;;;5012902;28;19913;-80
2023/09/11 13:26:37;;;;;;;;;;;21.20;73.10;;;;;;4996923;28;19914;-79
2023/09/11 13:29:03;;;;;;;;;;;21.20;73.00;;;;;;5016814;28;19913;-79
2023/09/11 13:31:28;;;;;;;;;;;21.20;72.90;;;;;;5032937;28;19919;-79
2023/09/11 13:33:54;;;;;;;;;;;21.10;72.90;;;;;;5016787;28;19913;-82
2023/09/11 13:36:20;;;;;;;;;;;21.10;73.00;;;;;;5041321;28;20315;-79
2023/09/11 13:38:46;;;;;;;;;;;21.10;73.10;;;;;;5016437;28;20307;-80
2023/09/11 13:41:12;;;;;;;;;;;21.10;73.10;;;;;;5032958;28;19916;-79
2023/09/11 13:43:37;;;;;;;;;;;21.10;73.10;;;;;;5037989;28;19916;-79
2023/09/11 13:46:03;;;;;;;;;;;21.10;73.10;;;;;;5035694;28;20000;-78
2023/09/11 13:48:28;;;;;;;;;;;21.10;73.30;;;;;;5035756;28;20359;-78
2023/09/11 13:53:38;;;;;;;;;;;21.00;73.40;;;;;;5047091;28;19920;-79
2023/09/11 13:56:04;;;;;;;;;;;20.80;73.40;;;;;;5045841;28;19913;-79
2023/09/11 13:58:29;;;;;;;;;;;20.70;73.50;;;;;;5025002;28;19966;-80
2023/09/11 14:00:55;;;;;;;;;;;20.70;73.70;;;;;;5048530;28;19928;-79
2023/09/11 14:03:20;;;;;;;;;;;20.60;73.80;;;;;;5035432;28;19916;-78
2023/09/11 14:05:46;;;;;;;;;;;20.70;73.80;;;;;;5028161;28;19982;-79
2023/09/11 14:08:12;;;;;;;;;;;20.70;73.80;;;;;;5065506;28;20792;-77
2023/09/11 14:10:37;;;;;;;;;;;20.70;73.70;;;;;;5041105;28;19912;-79
2023/09/11 14:13:03;;;;;;;;;;;20.80;73.70;;;;;;5046083;28;20347;-77
2023/09/11 14:15:28;;;;;;;;;;;20.70;73.70;;;;;;5048552;28;19912;-78
2023/09/11 14:17:54;;;;;;;;;;;20.70;73.90;;;;;;5035267;28;19913;-77